Gilleleje, Denmark
Current Conditions -  °F | °C
As of 5:50 AM on Saturday 29 Nov 2014 (Local Time) from ESTA Reporting Station
Overcast Overcast  
Wind Chill: 27°   Ceiling: 2200
Heat Index: 36°   Visibility: 6mi
Dew Point: 30°   Wind: 13mph
Humidity: 81%   Direction: 90°E
Pressure: 30.33"   Gusts: NA
Location:  56.12°N, 12.31°E
Report Text: ESTA 290450Z AUTO 09011KT 9999 OVC022/// 02/M01 Q1027
Loading
Personal Weather Stations






























Interactive Weather Map New forecast layout! Learn more

10-Day Weather Forecast

Advertisements
Track Severe Weather on mobile